Time;durP1;ratioP1;P1;durP2;ratioP2;P2;SDS_P1;SDS_P2;PMS_P1;PMS_P2;Temp;Humidity;BMP_temperature;BMP_pressure;BME280_temperature;BME280_humidity;BME280_pressure;Samples;Min_cycle;Max_cycle;Signal;HPM_P1;HPM_P2
2021/12/17 00:00:00;;;;;;;10.80;9.23;;;8.50;79.80;;;;;;5011469;28;20026;-69
2021/12/17 00:06:06;;;;;;;10.52;9.43;;;8.40;80.00;;;;;;4971001;28;20330;-66
2021/12/17 00:08:22;;;;;;;9.95;8.52;;;8.50;79.90;;;;;;4970414;28;20130;-62
2021/12/17 00:10:50;;;;;;;10.45;9.15;;;8.50;80.00;;;;;;4955433;28;20121;-63
2021/12/17 00:13:17;;;;;;;11.70;9.82;;;8.50;80.10;;;;;;4970277;28;20027;-65
2021/12/17 00:15:45;;;;;;;11.00;9.82;;;8.40;80.10;;;;;;4970636;28;20038;-63
2021/12/17 00:18:17;;;;;;;11.65;10.45;;;8.40;80.20;;;;;;4970194;28;20082;-66
2021/12/17 00:40:13;;;;;;;11.88;9.50;;;8.50;80.10;;;;;;4955260;28;20125;-62
2021/12/17 00:53:23;;;;;;;12.48;11.05;;;8.30;80.80;;;;;;5011343;28;20026;-60
2021/12/17 00:55:49;;;;;;;13.75;10.80;;;8.30;80.80;;;;;;5012501;28;20033;-61
2021/12/17 00:58:15;;;;;;;11.75;10.32;;;8.30;80.50;;;;;;5011222;28;20034;-60
2021/12/17 01:00:40;;;;;;;14.52;11.07;;;8.30;80.60;;;;;;5011062;28;20022;-61
2021/12/17 01:03:06;;;;;;;11.80;10.15;;;8.30;80.40;;;;;;5011162;28;20076;-68
2021/12/17 01:05:33;;;;;;;14.07;11.00;;;8.30;80.50;;;;;;5011384;28;20030;-66
2021/12/17 01:08:00;;;;;;;13.48;11.07;;;8.30;80.80;;;;;;5010350;28;20037;-66
2021/12/17 01:10:43;;;;;;;10.95;9.60;;;8.20;80.70;;;;;;5011646;28;20030;-65
2021/12/17 01:13:10;;;;;;;11.75;10.43;;;8.20;80.70;;;;;;5010668;28;20148;-62
2021/12/17 01:15:39;;;;;;;12.45;10.88;;;8.20;80.80;;;;;;5010447;28;20077;-66
2021/12/17 01:18:10;;;;;;;12.32;10.70;;;8.20;80.90;;;;;;5008958;28;20113;-62
2021/12/17 01:36:39;;;;;;;12.35;10.90;;;8.10;80.70;;;;;;5011763;28;20041;-62
2021/12/17 01:42:05;;;;;;;13.68;11.63;;;8.20;80.60;;;;;;5011871;28;20437;-61
2021/12/17 01:44:41;;;;;;;12.15;10.52;;;8.20;80.60;;;;;;5010449;28;20021;-61
2021/12/17 01:47:10;;;;;;;12.15;10.75;;;8.20;80.40;;;;;;5011125;28;20103;-63
2021/12/17 02:00:17;;;;;;;14.82;10.90;;;8.20;80.50;;;;;;5014381;28;20029;-60
2021/12/17 02:02:50;;;;;;;12.95;11.20;;;8.10;80.50;;;;;;5013651;28;20073;-63
2021/12/17 02:05:16;;;;;;;15.45;12.15;;;8.10;80.40;;;;;;5013033;28;20136;-62
2021/12/17 02:07:43;;;;;;;12.43;10.85;;;8.10;80.20;;;;;;5014707;28;20518;-61
2021/12/17 02:28:49;;;;;;;13.32;11.63;;;8.30;79.10;;;;;;4980217;28;20401;-63
2021/12/17 02:33:44;;;;;;;13.80;11.95;;;8.30;78.80;;;;;;5034356;28;20034;-65
2021/12/17 02:36:10;;;;;;;14.13;12.63;;;8.30;78.70;;;;;;5016028;28;20039;-59
2021/12/17 02:38:39;;;;;;;15.48;13.52;;;8.30;78.70;;;;;;5034257;28;20139;-63
2021/12/17 02:46:35;;;;;;;15.13;12.50;;;8.30;78.30;;;;;;5033910;28;20123;-59
2021/12/17 02:49:02;;;;;;;12.93;10.85;;;8.20;78.50;;;;;;5015419;28;20443;-67
2021/12/17 02:51:46;;;;;;;13.50;11.85;;;8.20;78.50;;;;;;5016522;28;20080;-58
2021/12/17 02:54:12;;;;;;;;;;;8.20;78.60;;;;;;5019144;28;20026;-59
2021/12/17 02:56:38;;;;;;;13.55;11.73;;;8.20;78.40;;;;;;5033672;28;20024;-59
2021/12/17 02:59:03;;;;;;;13.18;10.85;;;8.10;78.30;;;;;;5033377;28;20033;-66
2021/12/17 03:01:31;;;;;;;14.50;11.65;;;8.10;78.50;;;;;;5034102;28;20069;-60
2021/12/17 03:03:57;;;;;;;15.13;12.30;;;8.20;78.30;;;;;;5034279;28;20079;-58
2021/12/17 03:06:23;;;;;;;14.00;12.38;;;8.20;78.10;;;;;;5032839;28;20061;-59
2021/12/17 03:08:49;;;;;;;14.35;12.68;;;8.20;77.90;;;;;;5033157;28;20069;-60
2021/12/17 03:11:16;;;;;;;16.52;12.80;;;8.20;77.80;;;;;;5033417;28;20021;-59
2021/12/17 03:13:44;;;;;;;14.38;12.25;;;8.30;77.90;;;;;;5033908;28;20049;-61
2021/12/17 03:16:23;;;;;;;14.90;12.43;;;8.40;77.50;;;;;;5016036;28;20506;-62
2021/12/17 03:19:01;;;;;;;16.45;12.88;;;8.30;77.00;;;;;;5034344;28;20109;-61
2021/12/17 03:24:11;;;;;;;14.90;12.57;;;8.30;77.20;;;;;;5033424;28;20490;-60
2021/12/17 03:26:37;;;;;;;15.00;13.18;;;8.30;77.00;;;;;;5034112;28;20124;-61
2021/12/17 03:29:07;;;;;;;13.02;11.23;;;8.30;76.90;;;;;;5033628;28;20029;-67
2021/12/17 03:31:34;;;;;;;14.57;12.43;;;8.20;76.60;;;;;;5033652;28;20489;-63
2021/12/17 03:34:34;;;;;;;14.52;11.98;;;8.20;76.90;;;;;;5033568;28;20021;-64
2021/12/17 03:36:56;;;;;;;16.05;12.95;;;8.20;76.80;;;;;;5032320;28;20037;-60
2021/12/17 03:39:24;;;;;;;13.95;11.93;;;8.20;76.60;;;;;;5015360;28;20064;-60
2021/12/17 03:41:51;;;;;;;14.35;12.80;;;8.20;76.50;;;;;;5034081;28;20021;-62
2021/12/17 03:44:19;;;;;;;14.90;12.38;;;8.20;76.40;;;;;;5033234;28;20033;-59
2021/12/17 03:46:46;;;;;;;13.80;12.13;;;8.20;76.50;;;;;;5033630;28;20112;-61
2021/12/17 03:49:13;;;;;;;16.10;12.98;;;8.10;76.30;;;;;;5015502;28;20039;-61
2021/12/17 03:51:49;;;;;;;16.15;12.68;;;8.20;76.60;;;;;;5015868;28;20072;-61
2021/12/17 03:54:16;;;;;;;15.80;13.65;;;8.10;76.30;;;;;;5033203;28;20025;-63
2021/12/17 03:56:42;;;;;;;16.52;13.85;;;8.20;76.20;;;;;;5015687;28;20061;-61
2021/12/17 03:59:10;;;;;;;16.48;14.02;;;8.20;76.10;;;;;;5032739;28;20113;-58
2021/12/17 04:01:38;;;;;;;17.33;13.45;;;8.20;76.10;;;;;;5033461;28;20033;-61
2021/12/17 04:04:05;;;;;;;18.25;14.18;;;8.10;76.00;;;;;;5033542;28;20026;-56
2021/12/17 04:06:31;;;;;;;17.60;13.88;;;8.10;76.20;;;;;;5032944;28;20033;-61
2021/12/17 04:08:57;;;;;;;16.02;12.93;;;8.10;76.40;;;;;;5032909;28;20477;-59
2021/12/17 04:11:22;;;;;;;15.70;11.82;;;8.00;76.20;;;;;;5014890;28;20028;-60
2021/12/17 04:13:54;;;;;;;12.82;11.40;;;8.00;76.20;;;;;;5032143;28;20049;-61
2021/12/17 04:16:27;;;;;;;15.10;12.18;;;8.00;76.20;;;;;;5032292;28;20382;-61
2021/12/17 04:18:54;;;;;;;17.33;12.85;;;7.90;76.50;;;;;;5015120;28;20458;-61
2021/12/17 04:21:21;;;;;;;16.50;13.38;;;7.90;76.40;;;;;;5031988;28;20065;-61
2021/12/17 04:23:48;;;;;;;13.45;11.35;;;7.90;76.20;;;;;;5032744;28;20163;-59
2021/12/17 04:26:16;;;;;;;15.05;13.00;;;7.90;76.40;;;;;;5014150;28;20108;-61
2021/12/17 04:28:46;;;;;;;15.30;12.77;;;7.90;77.00;;;;;;5032182;28;20037;-60
2021/12/17 04:31:12;;;;;;;15.60;12.73;;;7.90;76.00;;;;;;5031916;28;20029;-64
2021/12/17 04:33:40;;;;;;;15.13;12.10;;;7.80;76.20;;;;;;5032637;28;20029;-59
2021/12/17 04:36:07;;;;;;;15.82;12.75;;;7.80;76.10;;;;;;5014976;28;20444;-60
2021/12/17 04:38:33;;;;;;;14.70;12.00;;;7.80;76.00;;;;;;5014611;28;20025;-62
2021/12/17 04:41:23;;;;;;;14.50;12.13;;;7.90;76.00;;;;;;5031700;28;20116;-59
2021/12/17 04:57:25;;;;;;;14.73;12.30;;;7.90;75.80;;;;;;5032707;28;19955;-62
2021/12/17 04:59:51;;;;;;;14.88;12.95;;;7.90;75.70;;;;;;5014640;28;20022;-64
2021/12/17 05:02:18;;;;;;;15.77;12.85;;;7.90;75.60;;;;;;5031462;28;20030;-63
2021/12/17 05:05:06;;;;;;;13.90;12.20;;;7.90;75.30;;;;;;5032376;28;20076;-62
2021/12/17 05:07:34;;;;;;;14.55;11.80;;;7.90;75.30;;;;;;5013779;28;20034;-62
2021/12/17 05:20:57;;;;;;;16.80;12.77;;;7.90;75.50;;;;;;5032001;28;19912;-57
2021/12/17 05:23:30;;;;;;;15.30;12.73;;;7.80;75.40;;;;;;5031571;28;20029;-61
2021/12/17 05:25:56;;;;;;;15.38;11.80;;;7.80;75.40;;;;;;5032084;28;20030;-62
2021/12/17 05:28:22;;;;;;;15.02;12.60;;;7.80;75.50;;;;;;5030807;28;20044;-64
2021/12/17 05:30:49;;;;;;;14.15;12.20;;;7.90;75.40;;;;;;5014953;28;20124;-62
2021/12/17 05:33:18;;;;;;;15.43;12.32;;;7.90;75.00;;;;;;5017408;28;20029;-66
2021/12/17 05:35:45;;;;;;;16.48;12.93;;;7.90;75.10;;;;;;5017798;28;20385;-60
2021/12/17 05:38:12;;;;;;;14.63;12.57;;;7.90;75.00;;;;;;5035229;28;20025;-62
2021/12/17 05:40:39;;;;;;;16.60;13.00;;;8.00;74.90;;;;;;5017476;28;20071;-65
2021/12/17 05:43:06;;;;;;;15.70;13.18;;;8.00;74.90;;;;;;5035386;28;20120;-58
2021/12/17 05:45:35;;;;;;;17.25;13.90;;;8.00;74.70;;;;;;5034883;28;20060;-61
2021/12/17 05:48:05;;;;;;;16.10;11.93;;;8.00;74.60;;;;;;5035665;28;20041;-62
2021/12/17 05:50:32;;;;;;;14.07;11.73;;;8.00;74.20;;;;;;5017273;28;20030;-62
2021/12/17 05:52:58;;;;;;;15.02;12.00;;;8.00;74.10;;;;;;5034763;28;20104;-66
2021/12/17 05:55:24;;;;;;;13.05;10.77;;;8.00;74.20;;;;;;5034566;28;20530;-57
2021/12/17 05:57:52;;;;;;;12.88;11.15;;;8.00;74.00;;;;;;5035266;28;20033;-60
2021/12/17 06:00:19;;;;;;;13.85;11.75;;;8.00;74.10;;;;;;5034433;28;20036;-70
2021/12/17 06:02:44;;;;;;;12.68;10.07;;;8.00;73.90;;;;;;5017608;28;20497;-59
2021/12/17 06:05:10;;;;;;;12.75;10.50;;;8.00;73.90;;;;;;5035197;28;20026;-66
2021/12/17 06:07:36;;;;;;;12.85;10.55;;;8.00;73.80;;;;;;5034778;28;20033;-67
2021/12/17 06:10:04;;;;;;;12.52;10.23;;;8.00;73.70;;;;;;5035063;28;20477;-61
2021/12/17 06:12:30;;;;;;;11.32;8.95;;;8.00;73.60;;;;;;5016819;28;20025;-63
2021/12/17 06:14:56;;;;;;;11.18;9.27;;;8.00;73.60;;;;;;5034662;28;20140;-70
2021/12/17 06:17:22;;;;;;;11.98;10.18;;;8.00;73.50;;;;;;5016935;28;20033;-62
2021/12/17 06:19:48;;;;;;;12.05;9.93;;;8.00;73.20;;;;;;5017633;28;20107;-66
2021/12/17 06:22:15;;;;;;;12.98;10.43;;;8.10;73.30;;;;;;5034542;28;20049;-64
2021/12/17 06:24:45;;;;;;;12.32;10.57;;;8.10;73.50;;;;;;5034744;28;20422;-62
2021/12/17 06:27:16;;;;;;;12.35;10.38;;;8.10;73.20;;;;;;5017048;28;20063;-62
2021/12/17 06:29:43;;;;;;;12.93;11.05;;;8.10;73.40;;;;;;5034815;28;20537;-63
2021/12/17 06:32:10;;;;;;;16.40;10.57;;;8.20;73.40;;;;;;5017285;28;20033;-63
2021/12/17 06:34:36;;;;;;;17.73;10.80;;;8.30;73.20;;;;;;5034420;28;20036;-64
2021/12/17 06:37:03;;;;;;;12.60;9.75;;;8.40;73.10;;;;;;5017080;28;20053;-62
2021/12/17 06:39:29;;;;;;;11.32;9.10;;;8.40;72.40;;;;;;5033885;28;20474;-62
2021/12/17 06:41:55;;;;;;;13.35;9.68;;;8.40;72.50;;;;;;5034308;28;20556;-61
2021/12/17 06:44:24;;;;;;;13.35;9.48;;;8.50;72.30;;;;;;5016047;28;20026;-68
2021/12/17 06:47:02;;;;;;;16.15;9.90;;;8.50;71.90;;;;;;5016643;28;20036;-63
2021/12/17 06:55:02;;;;;;;19.27;10.20;;;8.60;71.50;;;;;;5034234;28;20075;-63
2021/12/17 07:32:18;;;;;;;15.85;11.65;;;8.80;70.10;;;;;;5015628;28;20569;-65
2021/12/17 07:35:13;;;;;;;17.85;12.68;;;8.80;70.00;;;;;;5032757;28;20043;-59
2021/12/17 07:40:10;;;;;;;19.55;13.00;;;8.90;69.70;;;;;;5032359;28;20058;-65
2021/12/17 07:42:37;;;;;;;16.42;11.77;;;8.90;69.50;;;;;;4998173;28;20539;-60
2021/12/17 07:45:04;;;;;;;19.13;12.70;;;8.90;69.30;;;;;;5032939;28;20026;-66
2021/12/17 07:47:30;;;;;;;18.60;12.27;;;8.90;68.60;;;;;;5033033;28;20029;-65
2021/12/17 07:49:56;;;;;;;19.42;11.93;;;8.90;68.80;;;;;;5033148;28;20467;-64
2021/12/17 07:52:23;;;;;;;22.02;12.60;;;9.00;68.60;;;;;;5033778;28;20052;-61
2021/12/17 07:54:48;;;;;;;21.30;11.52;;;8.90;68.10;;;;;;5012173;28;20026;-69
2021/12/17 07:57:14;;;;;;;24.05;11.48;;;8.90;68.50;;;;;;5014980;28;20444;-63
2021/12/17 07:59:40;;;;;;;18.65;11.02;;;8.90;68.00;;;;;;5033671;28;20097;-63
2021/12/17 08:02:07;;;;;;;18.00;11.63;;;9.00;67.80;;;;;;5014882;28;20488;-63
2021/12/17 08:04:33;;;;;;;18.75;11.73;;;9.00;67.80;;;;;;5032366;28;20069;-64
2021/12/17 08:06:59;;;;;;;18.15;12.50;;;9.00;67.80;;;;;;5032860;28;20037;-65
2021/12/17 08:09:28;;;;;;;17.27;11.88;;;9.00;67.60;;;;;;4997888;28;20065;-66
2021/12/17 08:11:55;;;;;;;19.67;12.02;;;9.10;67.30;;;;;;5032609;28;20026;-65
2021/12/17 08:14:21;;;;;;;18.13;11.57;;;9.20;67.30;;;;;;5032607;28;20049;-66
2021/12/17 08:17:00;;;;;;;16.27;11.23;;;9.20;66.80;;;;;;5014413;28;20112;-70
2021/12/17 08:32:32;;;;;;;17.77;10.38;;;9.50;65.80;;;;;;5032127;28;20040;-65
2021/12/17 08:34:58;;;;;;;17.50;10.13;;;9.40;65.70;;;;;;5014686;28;20096;-66
2021/12/17 08:37:24;;;;;;;17.20;10.55;;;9.40;65.50;;;;;;5032116;28;20025;-67
2021/12/17 08:39:50;;;;;;;20.52;10.50;;;9.40;65.70;;;;;;5014106;28;20460;-66
2021/12/17 08:42:16;;;;;;;18.48;10.93;;;9.40;65.00;;;;;;5032217;28;20100;-70
2021/12/17 08:44:41;;;;;;;19.25;10.77;;;9.40;65.70;;;;;;5030849;28;20458;-65
2021/12/17 08:47:08;;;;;;;16.00;10.00;;;9.40;65.40;;;;;;5032123;28;20033;-67
2021/12/17 08:49:35;;;;;;;15.98;9.68;;;9.30;65.20;;;;;;5032046;28;20055;-69
2021/12/17 08:52:01;;;;;;;17.10;8.32;;;9.40;65.00;;;;;;5014054;28;20020;-67
2021/12/17 08:54:27;;;;;;;15.38;9.13;;;9.30;65.20;;;;;;5031349;28;20021;-67
2021/12/17 08:56:53;;;;;;;12.65;7.88;;;9.30;65.30;;;;;;5013441;28;20036;-67
2021/12/17 08:59:19;;;;;;;12.60;8.52;;;9.40;64.80;;;;;;5032242;28;20374;-67
2021/12/17 09:01:46;;;;;;;13.30;7.60;;;9.40;65.00;;;;;;5013375;28;20124;-66
2021/12/17 09:04:12;;;;;;;17.45;7.47;;;9.50;65.10;;;;;;5031283;28;20442;-69
2021/12/17 09:06:38;;;;;;;14.20;9.30;;;9.50;64.80;;;;;;5012387;28;20037;-65
2021/12/17 09:09:04;;;;;;;17.55;8.27;;;9.60;64.80;;;;;;5013983;28;20453;-67
2021/12/17 09:11:31;;;;;;;13.00;8.50;;;9.50;64.00;;;;;;5031213;28;20076;-68
2021/12/17 09:13:59;;;;;;;14.30;8.48;;;9.60;64.30;;;;;;5013850;28;20092;-66
2021/12/17 09:16:25;;;;;;;13.45;8.30;;;9.60;64.70;;;;;;4997515;28;20029;-68
2021/12/17 09:18:53;;;;;;;14.60;8.35;;;9.60;64.50;;;;;;5012307;28;20056;-66
2021/12/17 09:21:19;;;;;;;15.18;8.95;;;9.70;64.30;;;;;;5029525;28;20030;-69
2021/12/17 09:23:46;;;;;;;13.00;8.65;;;9.60;64.10;;;;;;5029841;28;20060;-71
2021/12/17 09:26:14;;;;;;;15.23;8.73;;;9.60;64.00;;;;;;5014190;28;20034;-68
2021/12/17 09:28:40;;;;;;;14.30;8.05;;;9.60;64.10;;;;;;5012602;28;20045;-72
2021/12/17 09:31:12;;;;;;;11.65;8.20;;;9.60;63.80;;;;;;5012221;28;20045;-71
2021/12/17 09:33:43;;;;;;;14.10;8.73;;;9.60;63.90;;;;;;5012229;28;20172;-64
2021/12/17 09:36:11;;;;;;;16.08;8.70;;;9.50;64.00;;;;;;5012987;28;20076;-68
2021/12/17 09:38:37;;;;;;;14.45;8.55;;;9.60;63.90;;;;;;4997357;28;20030;-67
2021/12/17 09:41:04;;;;;;;11.02;7.90;;;9.60;63.80;;;;;;5013220;28;20029;-68
2021/12/17 09:43:32;;;;;;;14.70;8.52;;;9.60;63.40;;;;;;5013482;28;20029;-69
2021/12/17 09:45:58;;;;;;;16.00;8.68;;;9.60;63.60;;;;;;5031181;28;20065;-66
2021/12/17 09:48:25;;;;;;;16.73;8.98;;;9.70;63.80;;;;;;5013775;28;20029;-66
2021/12/17 09:50:52;;;;;;;18.02;9.82;;;9.70;63.70;;;;;;5012823;28;20033;-66
2021/12/17 09:53:18;;;;;;;16.80;8.73;;;9.70;63.40;;;;;;5030511;28;20068;-68
2021/12/17 09:55:45;;;;;;;17.80;9.40;;;9.70;63.30;;;;;;5012362;28;20508;-62
2021/12/17 09:58:11;;;;;;;20.10;8.43;;;9.70;63.60;;;;;;5030131;28;20446;-65
2021/12/17 10:00:37;;;;;;;17.65;9.20;;;9.80;63.40;;;;;;5013109;28;20036;-56
2021/12/17 10:03:07;;;;;;;14.02;8.55;;;9.80;63.00;;;;;;5012835;28;20030;-70
2021/12/17 10:05:35;;;;;;;16.42;8.90;;;9.80;62.80;;;;;;5012148;28;20457;-64
2021/12/17 10:08:05;;;;;;;20.17;9.93;;;9.80;62.80;;;;;;5012825;28;20049;-65
2021/12/17 10:10:44;;;;;;;15.68;8.35;;;9.80;62.90;;;;;;5029947;28;20480;-68
2021/12/17 10:13:18;;;;;;;17.20;8.90;;;9.80;63.00;;;;;;5030345;28;20030;-54
2021/12/17 10:15:46;;;;;;;18.20;8.85;;;9.80;62.70;;;;;;4990508;28;20100;-61
2021/12/17 10:18:13;;;;;;;16.73;9.82;;;9.70;62.50;;;;;;4993924;28;20033;-61
2021/12/17 10:20:51;;;;;;;16.23;9.73;;;9.70;62.50;;;;;;4994447;28;20026;-68
2021/12/17 10:23:20;;;;;;;22.70;9.68;;;9.70;62.90;;;;;;4994926;28;20023;-69
2021/12/17 10:25:46;;;;;;;15.27;9.15;;;9.70;62.80;;;;;;4990180;28;20034;-62
2021/12/17 10:28:14;;;;;;;17.25;8.77;;;9.80;62.80;;;;;;4993423;28;20077;-66
2021/12/17 10:30:44;;;;;;;18.25;8.90;;;9.80;63.20;;;;;;4990692;28;20026;-66
2021/12/17 10:33:17;;;;;;;17.70;9.10;;;9.90;62.00;;;;;;4994684;28;20114;-61
2021/12/17 10:35:46;;;;;;;14.35;8.43;;;10.00;62.20;;;;;;4994288;28;20030;-64
2021/12/17 10:38:15;;;;;;;12.43;7.65;;;10.10;61.60;;;;;;4993596;28;20033;-65
2021/12/17 10:41:04;;;;;;;17.63;8.40;;;10.10;61.40;;;;;;4990115;28;20117;-69
2021/12/17 10:43:38;;;;;;;16.17;8.45;;;10.10;60.90;;;;;;4994822;28;20042;-62
2021/12/17 10:51:12;;;;;;;13.30;8.05;;;10.30;60.50;;;;;;4994680;28;20031;-65
2021/12/17 10:53:38;;;;;;;18.95;8.30;;;10.40;60.40;;;;;;4992869;28;20472;-72
2021/12/17 10:56:04;;;;;;;20.20;8.88;;;10.50;60.00;;;;;;4993346;28;20031;-61
2021/12/17 10:58:31;;;;;;;15.25;8.57;;;10.60;59.30;;;;;;4992707;28;20468;-61
2021/12/17 11:01:02;;;;;;;15.50;7.68;;;10.50;59.10;;;;;;4989940;28;20180;-62
2021/12/17 11:03:29;;;;;;;17.42;7.60;;;10.40;59.10;;;;;;4993911;28;20057;-62
2021/12/17 11:05:55;;;;;;;18.55;6.95;;;10.40;59.00;;;;;;4992237;28;20037;-65
2021/12/17 11:08:33;;;;;;;13.68;7.97;;;10.40;59.20;;;;;;4994221;28;20383;-64
2021/12/17 11:11:08;;;;;;;17.38;9.05;;;10.40;58.40;;;;;;4992712;28;20339;-68
2021/12/17 11:13:36;;;;;;;23.25;7.95;;;10.40;58.80;;;;;;4997589;28;20026;-66
2021/12/17 11:16:03;;;;;;;12.57;7.50;;;10.50;58.00;;;;;;5015746;28;20051;-63
2021/12/17 11:18:51;;;;;;;15.55;7.53;;;10.50;58.40;;;;;;5015438;28;20026;-69
2021/12/17 11:21:16;;;;;;;15.38;8.38;;;10.40;57.90;;;;;;5033160;28;20542;-70
2021/12/17 11:23:42;;;;;;;19.65;8.00;;;10.40;58.30;;;;;;5032653;28;20104;-66
2021/12/17 11:26:08;;;;;;;17.40;8.52;;;10.50;58.80;;;;;;5032848;28;20095;-69
2021/12/17 11:28:35;;;;;;;16.98;9.40;;;10.80;58.10;;;;;;5032039;28;20091;-69
2021/12/17 11:31:01;;;;;;;17.15;8.93;;;10.80;57.70;;;;;;5015175;28;20500;-69
2021/12/17 11:33:27;;;;;;;14.32;8.60;;;10.60;57.50;;;;;;5033171;28;20025;-70
2021/12/17 11:35:55;;;;;;;15.25;8.38;;;10.60;58.20;;;;;;5015080;28;20485;-69
2021/12/17 11:38:46;;;;;;;13.77;8.32;;;10.60;58.10;;;;;;5015337;28;20421;-71
2021/12/17 11:41:22;;;;;;;16.15;8.57;;;10.60;57.80;;;;;;5022017;28;20030;-68
2021/12/17 11:43:57;;;;;;;21.70;9.88;;;10.40;57.70;;;;;;5014996;28;20025;-71
2021/12/17 11:46:26;;;;;;;22.17;10.02;;;10.40;58.50;;;;;;5032950;28;20362;-69
2021/12/17 11:48:59;;;;;;;14.48;8.27;;;10.50;58.60;;;;;;5014394;28;20037;-67
2021/12/17 11:51:27;;;;;;;16.95;8.60;;;10.40;57.90;;;;;;5033202;28;20445;-70
2021/12/17 11:53:55;;;;;;;16.95;8.55;;;10.40;58.30;;;;;;5030885;28;20584;-72
2021/12/17 11:56:41;;;;;;;21.02;9.82;;;10.40;58.30;;;;;;5032902;28;20036;-70
2021/12/17 11:59:27;;;;;;;18.90;9.38;;;10.30;58.40;;;;;;5032098;28;20036;-69
2021/12/17 12:02:05;;;;;;;17.77;8.80;;;10.30;58.30;;;;;;5031169;28;20037;-68
2021/12/17 12:04:34;;;;;;;17.15;8.82;;;10.30;58.40;;;;;;5032383;28;20083;-69
2021/12/17 12:07:12;;;;;;;14.40;8.25;;;10.30;58.90;;;;;;5030214;28;20174;-68
2021/12/17 12:10:05;;;;;;;18.27;8.25;;;10.30;58.70;;;;;;5011522;28;20457;-68
2021/12/17 12:12:51;;;;;;;15.00;8.35;;;10.30;58.60;;;;;;5013184;28;20040;-68
2021/12/17 12:15:23;;;;;;;16.38;8.63;;;10.20;58.90;;;;;;5010154;28;20053;-66
2021/12/17 12:18:03;;;;;;;19.27;8.73;;;10.00;59.30;;;;;;5011426;28;20116;-69
2021/12/17 12:20:48;;;;;;;17.88;8.30;;;10.10;59.50;;;;;;5010945;28;20061;-68
2021/12/17 12:23:37;;;;;;;16.35;8.13;;;10.30;59.10;;;;;;5012245;28;20087;-67
2021/12/17 12:26:04;;;;;;;14.20;7.47;;;10.20;58.70;;;;;;5010402;28;20126;-70
2021/12/17 12:28:45;;;;;;;15.02;7.75;;;10.10;58.90;;;;;;5010734;28;20172;-68
2021/12/17 12:31:17;;;;;;;17.13;8.32;;;10.00;58.90;;;;;;5011541;28;20030;-68
2021/12/17 12:34:06;;;;;;;16.20;8.60;;;10.00;59.20;;;;;;5012871;28;20528;-64
2021/12/17 12:36:52;;;;;;;18.52;8.70;;;10.00;59.10;;;;;;5012815;28;20422;-67
2021/12/17 12:39:20;;;;;;;15.38;8.48;;;9.80;59.10;;;;;;5011327;28;20038;-68
2021/12/17 12:41:55;;;;;;;21.58;8.40;;;9.80;59.70;;;;;;5011199;28;20022;-69
2021/12/17 12:44:41;;;;;;;19.40;8.98;;;9.80;59.50;;;;;;5012219;28;20481;-68
2021/12/17 12:47:08;;;;;;;17.67;7.97;;;9.70;59.50;;;;;;5011413;28;20120;-69
2021/12/17 12:49:52;;;;;;;21.35;10.13;;;9.80;59.70;;;;;;5010305;28;20467;-68
2021/12/17 12:52:20;;;;;;;19.52;8.35;;;10.00;59.80;;;;;;5012274;28;20390;-69
2021/12/17 12:54:51;;;;;;;19.25;7.40;;;10.10;59.20;;;;;;5010398;28;20467;-66
2021/12/17 12:57:31;;;;;;;18.02;8.57;;;10.20;59.00;;;;;;5011698;28;20030;-69
2021/12/17 12:59:59;;;;;;;17.95;8.98;;;10.30;58.60;;;;;;5009761;28;20029;-67
2021/12/17 13:02:26;;;;;;;17.67;7.47;;;10.40;58.50;;;;;;5011825;28;20408;-67
2021/12/17 13:04:58;;;;;;;18.58;8.25;;;10.40;57.90;;;;;;5011066;28;20026;-62
2021/12/17 13:07:35;;;;;;;23.90;9.13;;;10.30;58.10;;;;;;5011485;28;20041;-71
2021/12/17 13:10:34;;;;;;;16.73;8.05;;;10.40;57.90;;;;;;4993662;28;20274;-68
2021/12/17 13:23:47;;;;;;;15.27;7.25;;;10.50;58.40;;;;;;5005766;28;20073;-71
2021/12/17 13:26:12;;;;;;;15.43;7.00;;;10.40;58.40;;;;;;5012037;28;20084;-66
2021/12/17 13:29:10;;;;;;;18.63;8.48;;;10.50;58.30;;;;;;4991622;28;20363;-65
2021/12/17 13:31:56;;;;;;;19.00;8.73;;;10.50;58.40;;;;;;5009710;28;20065;-63
2021/12/17 13:34:42;;;;;;;14.77;8.30;;;10.40;58.60;;;;;;5008718;28;20030;-68
2021/12/17 13:37:26;;;;;;;21.77;9.70;;;10.50;58.60;;;;;;5010675;28;20080;-70
2021/12/17 13:40:09;;;;;;;16.60;8.48;;;10.30;58.60;;;;;;5011307;28;20030;-72
2021/12/17 13:42:43;;;;;;;19.95;9.10;;;10.20;58.90;;;;;;5011114;28;20121;-68
2021/12/17 13:45:14;;;;;;;16.08;9.20;;;10.20;59.30;;;;;;5006757;28;20037;-69
2021/12/17 13:47:45;;;;;;;16.98;9.02;;;10.10;59.50;;;;;;5010666;28;20069;-70
2021/12/17 13:50:25;;;;;;;15.73;8.75;;;10.00;59.70;;;;;;5010145;28;20121;-64
2021/12/17 13:52:53;;;;;;;17.08;8.40;;;9.90;59.80;;;;;;5010711;28;20026;-64
2021/12/17 13:55:43;;;;;;;17.13;8.15;;;9.90;60.80;;;;;;5013749;28;20111;-69
2021/12/17 13:58:12;;;;;;;16.40;8.57;;;9.80;60.40;;;;;;5013870;28;20125;-71
2021/12/17 14:00:51;;;;;;;23.08;8.88;;;9.60;60.80;;;;;;5013848;28;20026;-61
2021/12/17 14:03:20;;;;;;;14.45;8.18;;;9.60;61.00;;;;;;5013394;28;20236;-72
2021/12/17 14:05:50;;;;;;;15.35;7.78;;;9.60;61.30;;;;;;5014011;28;20038;-73
2021/12/17 14:08:21;;;;;;;14.23;8.30;;;9.50;61.50;;;;;;5013883;28;20034;-65
2021/12/17 14:10:49;;;;;;;17.55;9.00;;;9.50;61.70;;;;;;5013315;28;20029;-71
2021/12/17 14:13:18;;;;;;;16.13;9.25;;;9.40;61.80;;;;;;5014551;28;20026;-71
2021/12/17 14:18:28;;;;;;;24.40;10.07;;;9.40;62.10;;;;;;5013984;28;20561;-70
2021/12/17 14:20:56;;;;;;;19.13;9.30;;;9.50;61.90;;;;;;5012230;28;20105;-64
2021/12/17 14:23:26;;;;;;;19.25;9.13;;;9.50;61.90;;;;;;5012472;28;20054;-65
2021/12/17 14:25:58;;;;;;;16.05;8.73;;;9.50;62.10;;;;;;5012237;28;20034;-71
2021/12/17 14:28:36;;;;;;;14.85;8.90;;;9.40;61.80;;;;;;5013119;28;20414;-65
2021/12/17 14:31:10;;;;;;;14.82;8.00;;;9.40;62.00;;;;;;5012111;28;20427;-64
2021/12/17 14:33:48;;;;;;;16.33;8.63;;;9.40;61.90;;;;;;5014057;28;20068;-67
2021/12/17 14:36:19;;;;;;;15.90;8.00;;;9.30;62.00;;;;;;5012697;28;20459;-67
2021/12/17 14:38:59;;;;;;;18.55;9.70;;;9.40;62.10;;;;;;5010776;28;20033;-69
2021/12/17 14:41:44;;;;;;;18.77;9.32;;;9.30;61.90;;;;;;5011587;28;20026;-69
2021/12/17 14:44:39;;;;;;;16.20;7.75;;;9.30;62.10;;;;;;5012547;28;20084;-68
2021/12/17 14:47:26;;;;;;;20.25;8.10;;;9.30;62.20;;;;;;5011673;28;20092;-65
2021/12/17 15:00:51;;;;;;;19.65;9.18;;;9.50;61.50;;;;;;5012934;28;20033;-64
2021/12/17 15:06:05;;;;;;;18.40;9.60;;;9.40;61.50;;;;;;5012893;28;20061;-67
2021/12/17 15:08:35;;;;;;;19.30;9.75;;;9.40;61.60;;;;;;4995938;28;20033;-68
2021/12/17 15:11:04;;;;;;;18.80;9.60;;;9.50;61.60;;;;;;5010795;28;20022;-64
2021/12/17 15:13:31;;;;;;;16.02;8.63;;;9.50;61.50;;;;;;4997635;28;20033;-69
2021/12/17 15:15:57;;;;;;;18.92;8.25;;;9.50;61.30;;;;;;5032556;28;20105;-64
2021/12/17 15:18:24;;;;;;;14.73;8.13;;;9.40;61.40;;;;;;5014955;28;20037;-65
2021/12/17 15:20:56;;;;;;;20.98;8.05;;;9.40;61.20;;;;;;5031622;28;20036;-64
2021/12/17 15:23:23;;;;;;;16.67;8.23;;;9.30;61.50;;;;;;5015064;28;20028;-64
2021/12/17 15:25:50;;;;;;;16.88;8.93;;;9.20;61.70;;;;;;4997497;28;20034;-70
2021/12/17 15:28:27;;;;;;;22.88;9.70;;;9.20;62.00;;;;;;5031423;28;20040;-65
2021/12/17 15:31:02;;;;;;;17.75;9.02;;;9.20;62.20;;;;;;5028604;28;20056;-66
2021/12/17 15:33:29;;;;;;;16.70;9.10;;;9.10;62.00;;;;;;5014639;28;20029;-68
2021/12/17 15:35:56;;;;;;;20.10;9.63;;;9.10;62.50;;;;;;5031222;28;20091;-64
2021/12/17 15:38:25;;;;;;;19.10;8.80;;;9.10;62.40;;;;;;5013766;28;20091;-63
2021/12/17 15:40:52;;;;;;;23.92;9.30;;;9.10;62.30;;;;;;4995565;28;20130;-72
2021/12/17 15:43:19;;;;;;;20.23;10.68;;;9.10;62.20;;;;;;5031191;28;20029;-68
2021/12/17 15:45:49;;;;;;;17.65;9.35;;;9.10;62.00;;;;;;5011384;28;20033;-68
2021/12/17 15:48:17;;;;;;;20.60;9.50;;;9.10;62.10;;;;;;5030901;28;20104;-68
2021/12/17 15:50:43;;;;;;;20.55;9.20;;;9.10;62.40;;;;;;5013059;28;20406;-69
2021/12/17 15:53:10;;;;;;;17.25;8.98;;;9.20;62.40;;;;;;5031539;28;20101;-70
2021/12/17 15:55:36;;;;;;;15.70;8.80;;;9.10;62.30;;;;;;5012055;28;20044;-67
2021/12/17 15:58:04;;;;;;;23.42;8.73;;;9.10;62.40;;;;;;5013893;28;20028;-73
2021/12/17 16:00:33;;;;;;;18.65;9.63;;;9.20;62.70;;;;;;5015307;28;20076;-67
2021/12/17 16:03:01;;;;;;;13.80;7.82;;;9.20;62.50;;;;;;5007982;28;20029;-72
2021/12/17 16:05:28;;;;;;;17.92;10.02;;;9.20;62.40;;;;;;5013357;28;20374;-71
2021/12/17 16:07:56;;;;;;;23.42;9.45;;;9.20;62.60;;;;;;5030818;28;20034;-69
2021/12/17 16:20:59;;;;;;;18.52;9.45;;;9.00;63.00;;;;;;5031165;28;20091;-70
2021/12/17 16:21:36;;;;;;;20.80;9.70;;;8.90;63.10;;;;;;5030277;28;20026;-71
2021/12/17 16:24:03;;;;;;;15.60;9.48;;;8.90;63.20;;;;;;5013283;28;20124;-74
2021/12/17 16:26:28;;;;;;;22.48;10.00;;;8.80;63.40;;;;;;5031643;28;20402;-70
2021/12/17 16:28:54;;;;;;;22.10;9.40;;;8.70;63.70;;;;;;5013464;28;20028;-70